This is the latest recevied telemetry packets stored in our database for station/object OK4AB-13. If no packets are shown the sender has not sent any telemetry packets the latest 1 day(s).
Telemetry packets is used to share measurements like repeteater parameters, battery voltage, radiation readings (or any other measurements).
| Time | Temperatu* | Humidity* | BARO* | Battery* | Satellite* |
|---|---|---|---|---|---|
| 1778075821 | 26.18 C | 48.6 % | 965.2 hPa | 0 v | 12 |
| 1778075761 | 26.18 C | 48.61 % | 965.2 hPa | 0 v | 12 |
| 1778075612 | 26.17 C | 48.66 % | 965.2 hPa | 0 v | 12 |
| 1778075560 | 26.15 C | 48.65 % | 965.2 hPa | 0 v | 12 |
| 1778075461 | 26.14 C | 48.65 % | 965.2 hPa | 0 v | 12 |
| 1778075373 | 26.13 C | 48.65 % | 965.2 hPa | 0 v | 12 |
| 1778075341 | 26.13 C | 48.66 % | 965.2 hPa | 0 v | 12 |
| 1778075281 | 26.13 C | 48.66 % | 965.2 hPa | 0 v | 12 |
| 1778075221 | 26.12 C | 48.64 % | 965.2 hPa | 0 v | 12 |
| 1778075156 | 26.12 C | 48.66 % | 965.2 hPa | 0 v | 12 |
| 1778075101 | 26.12 C | 48.66 % | 965.2 hPa | 0 v | 12 |
| 1778075041 | 26.12 C | 48.63 % | 965.2 hPa | 0 v | 12 |
| 1778074981 | 26.12 C | 48.65 % | 965.2 hPa | 0 v | 12 |
| 1778074921 | 26.12 C | 48.62 % | 965.2 hPa | 0 v | 12 |
| 1778074861 | 26.11 C | 48.62 % | 965.2 hPa | 0 v | 12 |
| 1778074741 | 26.1 C | 48.64 % | 965.2 hPa | 0 v | 12 |
| 1778074681 | 26.09 C | 48.62 % | 965.2 hPa | 0 v | 12 |
| 1778074621 | 26.07 C | 48.64 % | 965.2 hPa | 0 v | 12 |
| 1778074561 | 26.06 C | 48.67 % | 965.2 hPa | 0 v | 12 |
| 1778074497 | 26.04 C | 48.69 % | 965.2 hPa | 0 v | 12 |
| 1778073849 | 25.89 C | 48.88 % | 965.2 hPa | 0 v | 12 |
| 1778073790 | 25.89 C | 48.94 % | 965.2 hPa | 0 v | 12 |
| 1778073714 | 25.9 C | 48.5 % | 965.2 hPa | 0 v | 12 |
| 1778072871 | 26.03 C | 48.28 % | 965.4 hPa | 0 v | 12 |
| 1778071618 | 26.11 C | 48.17 % | 965.6 hPa | 0 v | 12 |
*Used Equation Coefficients:
Temperatu: 0, 0.01, 0
Humidity: 0, 0.01, 0
BARO: 0, 0.1, 800
Battery: 0, 0.01, 0
Satellite: 0, 1, 0
- The parameter names for the analog channels will be Value1, Value2, Value3 (up to Value5) if station has not sent a PARAM-packet that specifies the parameter names for each analog channel.
- Each analog value is a decimal number between 000 and 255 (according to APRS specifications). The receiver use the telemetry equation coefficientsto to restore the original sensor values. If no EQNS-packet with equation coefficients is sent we will show the values as is (this corresponds to the equation coefficients a=0, b=1 and c=0).
The sent equation coefficients is used in the equation: a * value2 + b * value + c. - The units for the analog values will not be shown if station has not sent a UNIT-packet specifying what unit's to use.
- The parameter names for the digital bits will be Bit1, Bit2, Bit3 (up to Bit8) if station has not sent a PARAM-packet that specifies the parameter names for each digital bit.
- All bit labels will be named "On" if station has not sent a UNIT-packet that specifies the label of each bit.
- A bit is considered to be On when the bit is 1 if station has not sent a BITS-packet that specifies another "Bit sense" (a BITS-packet specify the state of the bits that match the BIT labels)